Time;durP1;ratioP1;P1;durP2;ratioP2;P2;SDS_P1;SDS_P2;PMS_P1;PMS_P2;Temp;Humidity;BMP_temperature;BMP_pressure;BME280_temperature;BME280_humidity;BME280_pressure;Samples;Min_cycle;Max_cycle;Signal;HPM_P1;HPM_P2
2023/11/13 00:24:25;;;;;;;22.87;16.20;;;6.20;99.90;;;;;;4670657;29;20269;-84
2023/11/13 00:54:31;;;;;;;24.20;15.50;;;6.00;99.90;;;;;;4774756;29;20508;-86
2023/11/13 01:20:04;;;;;;;21.63;14.70;;;5.80;99.90;;;;;;4763796;29;20217;-86
2023/11/13 01:40:03;;;;;;;17.03;12.53;;;5.40;99.90;;;;;;4815040;28;20567;-86
2023/11/13 02:05:45;;;;;;;13.20;10.53;;;6.00;99.90;;;;;;4873758;28;20238;-81
2023/11/13 02:45:40;;;;;;;12.10;8.93;;;6.30;99.90;;;;;;4823732;28;20550;-85
2023/11/13 03:06:25;;;;;;;11.37;8.20;;;6.10;99.90;;;;;;4800575;29;20228;-85
2023/11/13 03:47:09;;;;;;;7.63;6.40;;;6.10;99.90;;;;;;4899521;28;20293;-83
2023/11/13 04:42:37;;;;;;;5.77;4.67;;;5.40;99.90;;;;;;4739396;29;20491;-84
2023/11/13 05:03:17;;;;;;;11.40;8.57;;;5.80;99.90;;;;;;4626777;30;20232;-82
2023/11/13 05:28:28;;;;;;;16.83;11.37;;;5.90;99.90;;;;;;4632710;30;20251;-84
2023/11/13 05:58:56;;;;;;;21.20;15.03;;;5.50;99.90;;;;;;4737855;29;20229;-85
2023/11/13 06:24:21;;;;;;;20.97;14.87;;;5.80;99.90;;;;;;4727658;29;20221;-87
2023/11/13 06:44:46;;;;;;;19.80;15.00;;;6.10;99.90;;;;;;4779973;29;20225;-84
2023/11/13 06:49:03;;;;;;;20.53;13.27;;;6.30;99.90;;;;;;4735817;29;20678;-87
2023/11/13 07:14:55;;;;;;;16.03;12.40;;;6.70;99.90;;;;;;4737192;29;20628;-86
2023/11/13 07:35:05;;;;;;;17.23;11.83;;;7.00;99.90;;;;;;4648324;30;20398;-84
2023/11/13 08:05:50;;;;;;;12.80;10.00;;;7.20;99.90;;;;;;4754126;29;20296;-82
2023/11/13 08:50:53;;;;;;;13.53;9.40;;;7.40;99.90;;;;;;4763679;29;20271;-85
2023/11/13 09:16:42;;;;;;;12.67;10.20;;;7.80;99.90;;;;;;4735158;29;20590;-86
2023/11/13 09:46:39;;;;;;;16.80;9.43;;;8.00;98.40;;;;;;4790625;29;20635;-84
2023/11/13 10:12:33;;;;;;;12.47;9.60;;;8.10;99.90;;;;;;4754982;29;21367;-83
2023/11/13 10:37:36;;;;;;;11.13;9.07;;;8.30;99.90;;;;;;4637668;29;20495;-84
2023/11/13 10:58:19;;;;;;;12.50;8.80;;;8.70;97.50;;;;;;4670604;30;20219;-84
2023/11/13 11:38:46;;;;;;;14.13;10.13;;;8.60;99.90;;;;;;4680284;29;20292;-83
2023/11/13 12:04:03;;;;;;;13.93;10.20;;;9.10;97.20;;;;;;4590709;30;20223;-84
2023/11/13 12:54:29;;;;;;;11.80;8.53;;;9.30;94.70;;;;;;4648323;29;20739;-85
2023/11/13 13:14:58;;;;;;;12.70;10.50;;;9.20;96.10;;;;;;4712102;29;20920;-85
2023/11/13 13:44:58;;;;;;;10.67;7.63;;;8.30;97.70;;;;;;4592756;30;20538;-83
2023/11/13 14:15:23;;;;;;;8.33;7.33;;;8.00;97.00;;;;;;4578988;29;20575;-84
2023/11/13 15:11:31;;;;;;;17.47;11.87;;;6.80;99.90;;;;;;4701032;29;20382;-83
2023/11/13 15:47:16;;;;;;;20.43;10.53;;;6.00;99.90;;;;;;4752916;29;20997;-87
2023/11/13 16:12:00;;;;;;;16.07;10.83;;;5.60;99.90;;;;;;4805599;29;20217;-92
2023/11/13 16:33:03;;;;;;;15.10;10.80;;;5.80;99.90;;;;;;4738069;29;20213;-84
2023/11/13 16:37:21;;;;;;;16.60;11.93;;;5.80;99.90;;;;;;4699276;30;20546;-86
2023/11/13 16:53:18;;;;;;;18.90;12.30;;;5.50;99.90;;;;;;4653077;30;20210;-87
2023/11/13 16:57:43;;;;;;;17.67;12.07;;;5.40;99.90;;;;;;4665394;30;20574;-86
2023/11/13 17:59:07;;;;;;;29.70;17.90;;;3.50;99.90;;;;;;4830227;29;20324;-84
2023/11/13 18:34:25;;;;;;;26.87;19.00;;;3.20;99.90;;;;;;4840196;29;20230;-85
2023/11/13 19:00:03;;;;;;;36.07;24.23;;;1.90;99.90;;;;;;4928640;28;20317;-86
2023/11/13 19:35:10;;;;;;;39.97;27.50;;;1.70;99.90;;;;;;4743026;29;20576;-86
2023/11/13 20:00:20;;;;;;;44.73;29.80;;;1.60;99.90;;;;;;4639075;30;20222;-85
2023/11/13 20:20:56;;;;;;;57.33;30.33;;;1.60;99.90;;;;;;4760923;29;20203;-87
2023/11/13 20:50:58;;;;;;;49.50;31.97;;;1.80;99.90;;;;;;4665033;29;20807;-85
2023/11/13 21:26:23;;;;;;;42.70;29.40;;;2.00;99.90;;;;;;4791805;28;20663;-83
2023/11/13 21:47:10;;;;;;;47.43;31.97;;;2.10;99.90;;;;;;4764971;29;20886;-83
2023/11/13 22:17:06;;;;;;;45.20;29.10;;;2.70;99.90;;;;;;4563383;30;20743;-88
2023/11/13 22:38:05;;;;;;;46.77;29.13;;;2.80;99.90;;;;;;4674505;29;20202;-86
2023/11/13 23:08:18;;;;;;;40.07;27.97;;;2.90;99.90;;;;;;4794286;28;20563;-86
2023/11/13 23:38:13;;;;;;;37.40;26.37;;;3.10;99.90;;;;;;4780786;29;20557;-87
2023/11/13 23:58:56;;;;;;;40.13;27.23;;;3.10;99.90;;;;;;4780612;29;20202;-84
